sensor_id;sensor_type;location;lat;lon;timestamp;P1;durP1;ratioP1;P2;durP2;ratioP2
18685;SDS011;9473;52.342;13.110;2023-05-10T00:00:15;8.00;;;3.80;;
18685;SDS011;9473;52.342;13.110;2023-05-10T00:02:42;6.35;;;3.90;;
18685;SDS011;9473;52.342;13.110;2023-05-10T00:05:09;8.75;;;4.05;;
18685;SDS011;9473;52.342;13.110;2023-05-10T00:07:35;9.07;;;4.18;;
18685;SDS011;9473;52.342;13.110;2023-05-10T00:10:03;6.22;;;3.85;;
18685;SDS011;9473;52.342;13.110;2023-05-10T00:12:30;4.95;;;3.38;;
18685;SDS011;9473;52.342;13.110;2023-05-10T00:14:58;7.63;;;4.30;;
18685;SDS011;9473;52.342;13.110;2023-05-10T00:17:25;7.20;;;3.65;;
18685;SDS011;9473;52.342;13.110;2023-05-10T00:19:52;6.05;;;3.45;;
18685;SDS011;9473;52.342;13.110;2023-05-10T00:22:19;6.97;;;3.85;;
18685;SDS011;9473;52.342;13.110;2023-05-10T00:24:46;6.20;;;3.90;;
18685;SDS011;9473;52.342;13.110;2023-05-10T00:27:13;7.32;;;3.78;;
18685;SDS011;9473;52.342;13.110;2023-05-10T00:29:40;6.78;;;3.78;;
18685;SDS011;9473;52.342;13.110;2023-05-10T00:32:08;6.65;;;4.30;;
18685;SDS011;9473;52.342;13.110;2023-05-10T00:34:35;8.40;;;3.78;;
18685;SDS011;9473;52.342;13.110;2023-05-10T00:37:02;7.75;;;4.22;;
18685;SDS011;9473;52.342;13.110;2023-05-10T00:39:29;7.75;;;4.20;;
18685;SDS011;9473;52.342;13.110;2023-05-10T00:41:56;9.30;;;3.70;;
18685;SDS011;9473;52.342;13.110;2023-05-10T00:44:23;7.85;;;4.30;;
18685;SDS011;9473;52.342;13.110;2023-05-10T00:46:50;7.32;;;4.10;;
18685;SDS011;9473;52.342;13.110;2023-05-10T00:49:19;11.20;;;4.55;;
18685;SDS011;9473;52.342;13.110;2023-05-10T00:51:46;6.45;;;3.72;;
18685;SDS011;9473;52.342;13.110;2023-05-10T00:54:13;6.85;;;3.97;;
18685;SDS011;9473;52.342;13.110;2023-05-10T00:56:41;7.22;;;4.20;;
18685;SDS011;9473;52.342;13.110;2023-05-10T00:59:08;6.68;;;4.10;;
18685;SDS011;9473;52.342;13.110;2023-05-10T01:01:35;8.68;;;4.40;;
18685;SDS011;9473;52.342;13.110;2023-05-10T01:04:02;6.07;;;3.92;;
18685;SDS011;9473;52.342;13.110;2023-05-10T01:06:31;13.60;;;4.30;;
18685;SDS011;9473;52.342;13.110;2023-05-10T01:08:58;5.85;;;3.92;;
18685;SDS011;9473;52.342;13.110;2023-05-10T01:11:25;6.38;;;4.72;;
18685;SDS011;9473;52.342;13.110;2023-05-10T01:13:52;9.18;;;4.55;;
18685;SDS011;9473;52.342;13.110;2023-05-10T01:16:21;7.13;;;4.20;;
18685;SDS011;9473;52.342;13.110;2023-05-10T01:18:48;8.18;;;4.15;;
18685;SDS011;9473;52.342;13.110;2023-05-10T01:21:17;7.05;;;4.32;;
18685;SDS011;9473;52.342;13.110;2023-05-10T01:23:53;6.45;;;4.50;;
18685;SDS011;9473;52.342;13.110;2023-05-10T01:26:35;6.72;;;4.15;;
18685;SDS011;9473;52.342;13.110;2023-05-10T01:29:11;7.82;;;4.40;;
18685;SDS011;9473;52.342;13.110;2023-05-10T01:34:29;6.60;;;3.92;;
18685;SDS011;9473;52.342;13.110;2023-05-10T01:37:01;7.90;;;4.70;;
18685;SDS011;9473;52.342;13.110;2023-05-10T01:39:32;7.40;;;4.00;;
18685;SDS011;9473;52.342;13.110;2023-05-10T01:42:03;7.55;;;4.22;;
18685;SDS011;9473;52.342;13.110;2023-05-10T01:44:35;9.60;;;4.47;;
18685;SDS011;9473;52.342;13.110;2023-05-10T01:47:04;8.43;;;4.40;;
18685;SDS011;9473;52.342;13.110;2023-05-10T01:49:34;8.70;;;5.30;;
18685;SDS011;9473;52.342;13.110;2023-05-10T01:52:04;8.40;;;4.07;;
18685;SDS011;9473;52.342;13.110;2023-05-10T01:54:32;10.05;;;5.03;;
18685;SDS011;9473;52.342;13.110;2023-05-10T01:57:01;9.60;;;4.78;;
18685;SDS011;9473;52.342;13.110;2023-05-10T01:59:29;11.20;;;4.88;;
18685;SDS011;9473;52.342;13.110;2023-05-10T02:01:57;6.80;;;4.15;;
18685;SDS011;9473;52.342;13.110;2023-05-10T02:04:24;8.07;;;4.68;;
18685;SDS011;9473;52.342;13.110;2023-05-10T02:06:53;8.30;;;4.78;;
18685;SDS011;9473;52.342;13.110;2023-05-10T02:09:21;9.52;;;4.63;;
18685;SDS011;9473;52.342;13.110;2023-05-10T02:11:49;7.20;;;4.68;;
18685;SDS011;9473;52.342;13.110;2023-05-10T02:14:16;8.65;;;4.63;;
18685;SDS011;9473;52.342;13.110;2023-05-10T02:16:43;8.60;;;4.80;;
18685;SDS011;9473;52.342;13.110;2023-05-10T02:19:11;6.80;;;4.38;;
18685;SDS011;9473;52.342;13.110;2023-05-10T02:21:39;7.30;;;4.70;;
18685;SDS011;9473;52.342;13.110;2023-05-10T02:24:07;9.30;;;4.72;;
18685;SDS011;9473;52.342;13.110;2023-05-10T02:26:35;9.93;;;5.18;;
18685;SDS011;9473;52.342;13.110;2023-05-10T02:29:02;9.43;;;4.85;;
18685;SDS011;9473;52.342;13.110;2023-05-10T02:31:30;9.82;;;4.90;;
18685;SDS011;9473;52.342;13.110;2023-05-10T02:33:58;11.38;;;4.70;;
18685;SDS011;9473;52.342;13.110;2023-05-10T02:36:25;8.57;;;4.25;;
18685;SDS011;9473;52.342;13.110;2023-05-10T02:38:53;7.80;;;4.68;;
18685;SDS011;9473;52.342;13.110;2023-05-10T02:41:21;7.65;;;4.85;;
18685;SDS011;9473;52.342;13.110;2023-05-10T02:43:49;6.72;;;4.25;;
18685;SDS011;9473;52.342;13.110;2023-05-10T02:46:17;7.75;;;4.60;;
18685;SDS011;9473;52.342;13.110;2023-05-10T02:48:44;7.47;;;4.72;;
18685;SDS011;9473;52.342;13.110;2023-05-10T02:51:11;9.50;;;4.32;;
18685;SDS011;9473;52.342;13.110;2023-05-10T02:53:42;8.77;;;4.80;;
18685;SDS011;9473;52.342;13.110;2023-05-10T02:56:11;9.43;;;4.63;;
18685;SDS011;9473;52.342;13.110;2023-05-10T02:58:40;6.85;;;4.35;;
18685;SDS011;9473;52.342;13.110;2023-05-10T03:01:07;8.25;;;4.20;;
18685;SDS011;9473;52.342;13.110;2023-05-10T03:03:34;9.35;;;4.40;;
18685;SDS011;9473;52.342;13.110;2023-05-10T03:06:01;7.47;;;4.60;;
18685;SDS011;9473;52.342;13.110;2023-05-10T03:08:28;9.80;;;4.80;;
18685;SDS011;9473;52.342;13.110;2023-05-10T03:10:59;8.05;;;4.65;;
18685;SDS011;9473;52.342;13.110;2023-05-10T03:13:31;7.32;;;4.47;;
18685;SDS011;9473;52.342;13.110;2023-05-10T03:16:03;7.47;;;4.40;;
18685;SDS011;9473;52.342;13.110;2023-05-10T03:18:33;9.38;;;5.32;;
18685;SDS011;9473;52.342;13.110;2023-05-10T03:21:02;8.15;;;5.07;;
18685;SDS011;9473;52.342;13.110;2023-05-10T03:23:35;8.15;;;5.05;;
18685;SDS011;9473;52.342;13.110;2023-05-10T03:26:02;11.32;;;5.28;;
18685;SDS011;9473;52.342;13.110;2023-05-10T03:28:29;8.38;;;4.80;;
18685;SDS011;9473;52.342;13.110;2023-05-10T03:30:56;9.63;;;5.28;;
18685;SDS011;9473;52.342;13.110;2023-05-10T03:33:25;8.27;;;4.82;;
18685;SDS011;9473;52.342;13.110;2023-05-10T03:35:52;9.57;;;4.90;;
18685;SDS011;9473;52.342;13.110;2023-05-10T03:38:19;9.80;;;5.20;;
18685;SDS011;9473;52.342;13.110;2023-05-10T03:40:46;8.18;;;4.45;;
18685;SDS011;9473;52.342;13.110;2023-05-10T03:43:13;8.63;;;4.35;;
18685;SDS011;9473;52.342;13.110;2023-05-10T03:45:40;10.60;;;5.40;;
18685;SDS011;9473;52.342;13.110;2023-05-10T03:48:07;8.85;;;5.38;;
18685;SDS011;9473;52.342;13.110;2023-05-10T03:50:35;10.02;;;5.13;;
18685;SDS011;9473;52.342;13.110;2023-05-10T03:53:02;8.82;;;5.10;;
18685;SDS011;9473;52.342;13.110;2023-05-10T03:55:29;9.90;;;5.25;;
18685;SDS011;9473;52.342;13.110;2023-05-10T03:57:59;11.93;;;5.47;;
18685;SDS011;9473;52.342;13.110;2023-05-10T04:00:26;8.95;;;4.80;;
18685;SDS011;9473;52.342;13.110;2023-05-10T04:02:53;9.35;;;4.57;;
18685;SDS011;9473;52.342;13.110;2023-05-10T04:05:20;9.95;;;6.03;;
18685;SDS011;9473;52.342;13.110;2023-05-10T04:07:48;8.50;;;4.80;;
18685;SDS011;9473;52.342;13.110;2023-05-10T04:10:16;10.75;;;4.88;;
18685;SDS011;9473;52.342;13.110;2023-05-10T04:12:42;9.35;;;5.10;;
18685;SDS011;9473;52.342;13.110;2023-05-10T04:15:10;9.57;;;4.80;;
18685;SDS011;9473;52.342;13.110;2023-05-10T04:17:37;8.32;;;4.70;;
18685;SDS011;9473;52.342;13.110;2023-05-10T04:20:04;8.95;;;4.82;;
18685;SDS011;9473;52.342;13.110;2023-05-10T04:22:32;11.98;;;5.57;;
18685;SDS011;9473;52.342;13.110;2023-05-10T04:25:00;7.18;;;4.82;;
18685;SDS011;9473;52.342;13.110;2023-05-10T04:27:27;9.65;;;5.13;;
18685;SDS011;9473;52.342;13.110;2023-05-10T04:29:54;8.60;;;4.70;;
18685;SDS011;9473;52.342;13.110;2023-05-10T04:32:21;6.38;;;4.05;;
18685;SDS011;9473;52.342;13.110;2023-05-10T04:34:48;6.20;;;4.40;;
18685;SDS011;9473;52.342;13.110;2023-05-10T04:37:15;7.57;;;4.45;;
18685;SDS011;9473;52.342;13.110;2023-05-10T04:39:42;7.43;;;4.25;;
18685;SDS011;9473;52.342;13.110;2023-05-10T04:42:11;7.32;;;4.45;;
18685;SDS011;9473;52.342;13.110;2023-05-10T04:44:39;6.72;;;4.35;;
18685;SDS011;9473;52.342;13.110;2023-05-10T04:47:06;7.38;;;4.43;;
18685;SDS011;9473;52.342;13.110;2023-05-10T04:49:33;8.15;;;4.30;;
18685;SDS011;9473;52.342;13.110;2023-05-10T04:52:00;8.70;;;4.53;;
18685;SDS011;9473;52.342;13.110;2023-05-10T04:54:27;8.02;;;4.55;;
18685;SDS011;9473;52.342;13.110;2023-05-10T04:56:54;8.65;;;4.75;;
18685;SDS011;9473;52.342;13.110;2023-05-10T04:59:22;9.93;;;4.45;;
18685;SDS011;9473;52.342;13.110;2023-05-10T05:01:49;10.20;;;4.28;;
18685;SDS011;9473;52.342;13.110;2023-05-10T05:04:16;5.82;;;3.85;;
18685;SDS011;9473;52.342;13.110;2023-05-10T05:06:43;5.68;;;3.92;;
18685;SDS011;9473;52.342;13.110;2023-05-10T05:09:10;7.80;;;4.07;;
18685;SDS011;9473;52.342;13.110;2023-05-10T05:11:37;7.00;;;4.38;;
18685;SDS011;9473;52.342;13.110;2023-05-10T05:14:05;9.38;;;4.60;;
18685;SDS011;9473;52.342;13.110;2023-05-10T05:16:33;6.80;;;4.15;;
18685;SDS011;9473;52.342;13.110;2023-05-10T05:19:00;7.45;;;4.18;;
18685;SDS011;9473;52.342;13.110;2023-05-10T05:21:27;7.43;;;3.72;;
18685;SDS011;9473;52.342;13.110;2023-05-10T05:23:54;5.93;;;3.53;;
18685;SDS011;9473;52.342;13.110;2023-05-10T05:26:21;5.78;;;3.83;;
18685;SDS011;9473;52.342;13.110;2023-05-10T05:28:48;5.43;;;3.40;;
18685;SDS011;9473;52.342;13.110;2023-05-10T05:31:18;6.38;;;3.72;;
18685;SDS011;9473;52.342;13.110;2023-05-10T05:33:46;7.07;;;3.60;;
18685;SDS011;9473;52.342;13.110;2023-05-10T05:36:13;5.13;;;3.13;;
18685;SDS011;9473;52.342;13.110;2023-05-10T05:38:40;7.50;;;3.80;;
18685;SDS011;9473;52.342;13.110;2023-05-10T05:41:08;6.63;;;3.38;;
18685;SDS011;9473;52.342;13.110;2023-05-10T05:43:35;8.32;;;3.78;;
18685;SDS011;9473;52.342;13.110;2023-05-10T05:46:01;7.25;;;3.38;;
18685;SDS011;9473;52.342;13.110;2023-05-10T05:48:29;6.38;;;3.90;;
18685;SDS011;9473;52.342;13.110;2023-05-10T05:50:57;6.15;;;3.45;;
18685;SDS011;9473;52.342;13.110;2023-05-10T05:53:24;5.50;;;3.80;;
18685;SDS011;9473;52.342;13.110;2023-05-10T05:55:51;5.00;;;3.22;;
18685;SDS011;9473;52.342;13.110;2023-05-10T05:58:19;8.43;;;3.38;;
18685;SDS011;9473;52.342;13.110;2023-05-10T06:00:46;7.13;;;3.40;;
18685;SDS011;9473;52.342;13.110;2023-05-10T06:03:13;7.05;;;3.88;;
18685;SDS011;9473;52.342;13.110;2023-05-10T06:05:40;5.35;;;3.38;;
18685;SDS011;9473;52.342;13.110;2023-05-10T06:08:08;5.72;;;3.38;;
18685;SDS011;9473;52.342;13.110;2023-05-10T06:10:35;5.03;;;3.15;;
18685;SDS011;9473;52.342;13.110;2023-05-10T06:13:02;5.75;;;3.45;;
18685;SDS011;9473;52.342;13.110;2023-05-10T06:15:29;5.18;;;3.40;;
18685;SDS011;9473;52.342;13.110;2023-05-10T06:17:57;6.25;;;3.58;;
18685;SDS011;9473;52.342;13.110;2023-05-10T06:20:24;5.93;;;3.35;;
18685;SDS011;9473;52.342;13.110;2023-05-10T06:22:50;6.95;;;3.30;;
18685;SDS011;9473;52.342;13.110;2023-05-10T06:25:19;7.88;;;3.65;;
18685;SDS011;9473;52.342;13.110;2023-05-10T06:27:46;7.18;;;3.83;;
18685;SDS011;9473;52.342;13.110;2023-05-10T06:30:13;4.93;;;3.28;;
18685;SDS011;9473;52.342;13.110;2023-05-10T06:32:40;6.13;;;3.25;;
18685;SDS011;9473;52.342;13.110;2023-05-10T06:35:08;5.28;;;3.50;;
18685;SDS011;9473;52.342;13.110;2023-05-10T06:37:36;9.20;;;3.17;;
18685;SDS011;9473;52.342;13.110;2023-05-10T06:40:03;6.63;;;3.25;;
18685;SDS011;9473;52.342;13.110;2023-05-10T06:42:31;7.43;;;3.50;;
18685;SDS011;9473;52.342;13.110;2023-05-10T06:44:58;5.80;;;3.13;;
18685;SDS011;9473;52.342;13.110;2023-05-10T06:47:25;4.90;;;3.10;;
18685;SDS011;9473;52.342;13.110;2023-05-10T06:49:52;6.78;;;3.38;;
18685;SDS011;9473;52.342;13.110;2023-05-10T06:52:19;5.60;;;3.22;;
18685;SDS011;9473;52.342;13.110;2023-05-10T06:54:46;8.27;;;2.97;;
18685;SDS011;9473;52.342;13.110;2023-05-10T06:57:13;6.93;;;2.97;;
18685;SDS011;9473;52.342;13.110;2023-05-10T06:59:41;7.32;;;3.40;;
18685;SDS011;9473;52.342;13.110;2023-05-10T07:02:08;5.18;;;3.10;;
18685;SDS011;9473;52.342;13.110;2023-05-10T07:04:35;6.22;;;3.00;;
18685;SDS011;9473;52.342;13.110;2023-05-10T07:07:02;6.07;;;2.85;;
18685;SDS011;9473;52.342;13.110;2023-05-10T07:09:29;4.60;;;3.08;;
18685;SDS011;9473;52.342;13.110;2023-05-10T07:11:56;5.82;;;3.08;;
18685;SDS011;9473;52.342;13.110;2023-05-10T07:14:23;4.45;;;2.63;;
18685;SDS011;9473;52.342;13.110;2023-05-10T07:16:51;7.10;;;3.10;;
18685;SDS011;9473;52.342;13.110;2023-05-10T07:19:18;6.18;;;2.65;;
18685;SDS011;9473;52.342;13.110;2023-05-10T07:21:45;7.20;;;3.03;;
18685;SDS011;9473;52.342;13.110;2023-05-10T07:24:12;4.35;;;2.75;;
18685;SDS011;9473;52.342;13.110;2023-05-10T07:26:39;5.72;;;2.92;;
18685;SDS011;9473;52.342;13.110;2023-05-10T07:29:06;4.72;;;2.60;;
18685;SDS011;9473;52.342;13.110;2023-05-10T07:31:33;5.10;;;2.67;;
18685;SDS011;9473;52.342;13.110;2023-05-10T07:34:01;4.60;;;2.80;;
18685;SDS011;9473;52.342;13.110;2023-05-10T07:36:28;4.57;;;2.90;;
18685;SDS011;9473;52.342;13.110;2023-05-10T07:38:55;4.70;;;2.88;;
18685;SDS011;9473;52.342;13.110;2023-05-10T07:41:22;3.58;;;2.70;;
18685;SDS011;9473;52.342;13.110;2023-05-10T07:43:49;4.32;;;2.72;;
18685;SDS011;9473;52.342;13.110;2023-05-10T07:46:17;7.75;;;3.08;;
18685;SDS011;9473;52.342;13.110;2023-05-10T07:48:44;4.63;;;2.60;;
18685;SDS011;9473;52.342;13.110;2023-05-10T07:51:12;3.38;;;2.50;;
18685;SDS011;9473;52.342;13.110;2023-05-10T07:53:39;6.03;;;2.78;;
18685;SDS011;9473;52.342;13.110;2023-05-10T07:56:20;4.30;;;2.80;;
18685;SDS011;9473;52.342;13.110;2023-05-10T07:58:47;6.18;;;2.50;;
18685;SDS011;9473;52.342;13.110;2023-05-10T08:01:14;3.78;;;2.40;;
18685;SDS011;9473;52.342;13.110;2023-05-10T08:03:41;8.07;;;2.65;;
18685;SDS011;9473;52.342;13.110;2023-05-10T08:06:08;7.72;;;2.53;;
18685;SDS011;9473;52.342;13.110;2023-05-10T08:08:36;5.30;;;2.55;;
18685;SDS011;9473;52.342;13.110;2023-05-10T08:11:03;5.30;;;2.50;;
18685;SDS011;9473;52.342;13.110;2023-05-10T08:13:30;6.03;;;2.55;;
18685;SDS011;9473;52.342;13.110;2023-05-10T08:15:57;4.75;;;2.78;;
18685;SDS011;9473;52.342;13.110;2023-05-10T08:18:24;4.65;;;2.47;;
18685;SDS011;9473;52.342;13.110;2023-05-10T08:20:51;4.32;;;2.50;;
18685;SDS011;9473;52.342;13.110;2023-05-10T08:23:18;7.10;;;2.50;;
18685;SDS011;9473;52.342;13.110;2023-05-10T08:25:46;6.25;;;2.45;;
18685;SDS011;9473;52.342;13.110;2023-05-10T08:28:13;7.18;;;2.58;;
18685;SDS011;9473;52.342;13.110;2023-05-10T08:30:40;3.38;;;2.38;;
18685;SDS011;9473;52.342;13.110;2023-05-10T08:33:07;6.85;;;3.40;;
18685;SDS011;9473;52.342;13.110;2023-05-10T08:35:34;4.82;;;2.78;;
18685;SDS011;9473;52.342;13.110;2023-05-10T08:38:01;5.30;;;2.65;;
18685;SDS011;9473;52.342;13.110;2023-05-10T08:40:28;3.75;;;2.38;;
18685;SDS011;9473;52.342;13.110;2023-05-10T08:42:58;3.65;;;2.40;;
18685;SDS011;9473;52.342;13.110;2023-05-10T08:45:25;4.32;;;2.85;;
18685;SDS011;9473;52.342;13.110;2023-05-10T08:47:54;4.38;;;2.25;;
18685;SDS011;9473;52.342;13.110;2023-05-10T08:50:21;5.65;;;2.47;;
18685;SDS011;9473;52.342;13.110;2023-05-10T08:52:48;3.53;;;2.28;;
18685;SDS011;9473;52.342;13.110;2023-05-10T08:55:18;6.88;;;2.70;;
18685;SDS011;9473;52.342;13.110;2023-05-10T08:57:46;3.72;;;2.20;;
18685;SDS011;9473;52.342;13.110;2023-05-10T09:00:14;4.45;;;2.50;;
18685;SDS011;9473;52.342;13.110;2023-05-10T09:02:41;5.20;;;2.72;;
18685;SDS011;9473;52.342;13.110;2023-05-10T09:05:10;5.00;;;2.80;;
18685;SDS011;9473;52.342;13.110;2023-05-10T09:07:37;4.68;;;2.50;;
18685;SDS011;9473;52.342;13.110;2023-05-10T09:10:05;4.72;;;2.50;;
18685;SDS011;9473;52.342;13.110;2023-05-10T09:12:32;3.60;;;2.47;;
18685;SDS011;9473;52.342;13.110;2023-05-10T09:14:59;4.28;;;2.45;;
18685;SDS011;9473;52.342;13.110;2023-05-10T09:17:27;5.97;;;2.72;;
18685;SDS011;9473;52.342;13.110;2023-05-10T09:19:58;5.43;;;2.75;;
18685;SDS011;9473;52.342;13.110;2023-05-10T09:22:25;4.05;;;2.50;;
18685;SDS011;9473;52.342;13.110;2023-05-10T09:25:03;5.15;;;2.50;;
18685;SDS011;9473;52.342;13.110;2023-05-10T09:27:30;5.95;;;2.70;;
18685;SDS011;9473;52.342;13.110;2023-05-10T09:29:57;3.78;;;2.80;;
18685;SDS011;9473;52.342;13.110;2023-05-10T09:32:36;5.95;;;2.42;;
18685;SDS011;9473;52.342;13.110;2023-05-10T09:35:07;4.40;;;2.47;;
18685;SDS011;9473;52.342;13.110;2023-05-10T09:37:34;5.70;;;2.53;;
18685;SDS011;9473;52.342;13.110;2023-05-10T09:40:03;5.40;;;2.53;;
18685;SDS011;9473;52.342;13.110;2023-05-10T09:42:30;4.95;;;2.42;;
18685;SDS011;9473;52.342;13.110;2023-05-10T09:44:59;2.83;;;2.30;;
18685;SDS011;9473;52.342;13.110;2023-05-10T09:47:26;3.75;;;2.10;;
18685;SDS011;9473;52.342;13.110;2023-05-10T09:49:54;4.88;;;2.45;;
18685;SDS011;9473;52.342;13.110;2023-05-10T09:52:27;6.03;;;2.55;;
18685;SDS011;9473;52.342;13.110;2023-05-10T09:54:54;6.72;;;2.17;;
18685;SDS011;9473;52.342;13.110;2023-05-10T09:57:22;5.63;;;2.15;;
18685;SDS011;9473;52.342;13.110;2023-05-10T09:59:49;3.60;;;2.30;;
18685;SDS011;9473;52.342;13.110;2023-05-10T10:02:18;2.80;;;2.20;;
18685;SDS011;9473;52.342;13.110;2023-05-10T10:04:46;2.75;;;2.20;;
18685;SDS011;9473;52.342;13.110;2023-05-10T10:07:17;3.00;;;2.22;;
18685;SDS011;9473;52.342;13.110;2023-05-10T10:09:48;4.32;;;2.17;;
18685;SDS011;9473;52.342;13.110;2023-05-10T10:12:15;3.95;;;2.50;;
18685;SDS011;9473;52.342;13.110;2023-05-10T10:14:42;5.50;;;2.20;;
18685;SDS011;9473;52.342;13.110;2023-05-10T10:17:09;2.95;;;2.20;;
18685;SDS011;9473;52.342;13.110;2023-05-10T10:19:37;4.28;;;2.30;;
18685;SDS011;9473;52.342;13.110;2023-05-10T10:22:04;2.70;;;2.00;;
18685;SDS011;9473;52.342;13.110;2023-05-10T10:24:32;5.45;;;2.42;;
18685;SDS011;9473;52.342;13.110;2023-05-10T10:27:01;4.55;;;2.50;;
18685;SDS011;9473;52.342;13.110;2023-05-10T10:29:31;4.90;;;2.20;;
18685;SDS011;9473;52.342;13.110;2023-05-10T10:32:03;2.92;;;1.88;;
18685;SDS011;9473;52.342;13.110;2023-05-10T10:34:33;3.83;;;2.10;;
18685;SDS011;9473;52.342;13.110;2023-05-10T10:37:03;4.57;;;2.10;;
18685;SDS011;9473;52.342;13.110;2023-05-10T10:39:30;5.18;;;2.30;;
18685;SDS011;9473;52.342;13.110;2023-05-10T10:41:58;3.53;;;1.90;;
18685;SDS011;9473;52.342;13.110;2023-05-10T10:44:34;5.22;;;2.47;;
18685;SDS011;9473;52.342;13.110;2023-05-10T10:47:06;4.80;;;2.15;;
18685;SDS011;9473;52.342;13.110;2023-05-10T10:49:42;3.80;;;2.20;;
18685;SDS011;9473;52.342;13.110;2023-05-10T10:52:13;3.60;;;2.30;;
18685;SDS011;9473;52.342;13.110;2023-05-10T10:54:41;3.22;;;2.30;;
18685;SDS011;9473;52.342;13.110;2023-05-10T10:57:12;5.95;;;2.20;;
18685;SDS011;9473;52.342;13.110;2023-05-10T10:59:42;5.60;;;2.30;;
18685;SDS011;9473;52.342;13.110;2023-05-10T11:02:10;4.82;;;2.33;;
18685;SDS011;9473;52.342;13.110;2023-05-10T11:04:43;9.02;;;2.35;;
18685;SDS011;9473;52.342;13.110;2023-05-10T11:07:18;4.05;;;2.35;;
18685;SDS011;9473;52.342;13.110;2023-05-10T11:09:45;5.63;;;2.22;;
18685;SDS011;9473;52.342;13.110;2023-05-10T11:12:14;5.72;;;2.10;;
18685;SDS011;9473;52.342;13.110;2023-05-10T11:14:41;5.00;;;2.42;;
18685;SDS011;9473;52.342;13.110;2023-05-10T11:17:24;6.38;;;2.17;;
18685;SDS011;9473;52.342;13.110;2023-05-10T11:20:06;4.97;;;2.20;;
18685;SDS011;9473;52.342;13.110;2023-05-10T11:22:48;4.03;;;2.42;;
18685;SDS011;9473;52.342;13.110;2023-05-10T11:25:16;3.83;;;2.47;;
18685;SDS011;9473;52.342;13.110;2023-05-10T11:27:44;6.40;;;2.20;;
18685;SDS011;9473;52.342;13.110;2023-05-10T11:30:12;3.88;;;2.40;;
18685;SDS011;9473;52.342;13.110;2023-05-10T11:32:39;6.68;;;2.10;;
18685;SDS011;9473;52.342;13.110;2023-05-10T11:35:07;3.10;;;2.20;;
18685;SDS011;9473;52.342;13.110;2023-05-10T11:37:34;5.32;;;2.33;;
18685;SDS011;9473;52.342;13.110;2023-05-10T11:40:02;8.77;;;2.47;;
18685;SDS011;9473;52.342;13.110;2023-05-10T11:42:29;4.80;;;2.17;;
18685;SDS011;9473;52.342;13.110;2023-05-10T11:44:57;4.43;;;2.17;;
18685;SDS011;9473;52.342;13.110;2023-05-10T11:47:24;3.60;;;2.17;;
18685;SDS011;9473;52.342;13.110;2023-05-10T11:49:51;3.83;;;2.10;;
18685;SDS011;9473;52.342;13.110;2023-05-10T11:52:18;3.50;;;2.22;;
18685;SDS011;9473;52.342;13.110;2023-05-10T11:54:46;3.28;;;2.15;;
18685;SDS011;9473;52.342;13.110;2023-05-10T11:57:17;4.25;;;2.13;;
18685;SDS011;9473;52.342;13.110;2023-05-10T11:59:45;6.10;;;2.00;;
18685;SDS011;9473;52.342;13.110;2023-05-10T12:02:13;5.47;;;2.10;;
18685;SDS011;9473;52.342;13.110;2023-05-10T12:04:40;3.70;;;2.22;;
18685;SDS011;9473;52.342;13.110;2023-05-10T12:07:07;2.92;;;2.10;;
18685;SDS011;9473;52.342;13.110;2023-05-10T12:09:34;4.50;;;2.28;;
18685;SDS011;9473;52.342;13.110;2023-05-10T12:12:01;3.70;;;2.28;;
18685;SDS011;9473;52.342;13.110;2023-05-10T12:14:28;2.80;;;2.00;;
18685;SDS011;9473;52.342;13.110;2023-05-10T12:16:58;4.82;;;2.70;;
18685;SDS011;9473;52.342;13.110;2023-05-10T12:19:26;3.47;;;2.08;;
18685;SDS011;9473;52.342;13.110;2023-05-10T12:21:53;3.78;;;2.08;;
18685;SDS011;9473;52.342;13.110;2023-05-10T12:24:20;3.88;;;2.20;;
18685;SDS011;9473;52.342;13.110;2023-05-10T12:26:47;5.72;;;2.38;;
18685;SDS011;9473;52.342;13.110;2023-05-10T12:29:14;2.67;;;2.08;;
18685;SDS011;9473;52.342;13.110;2023-05-10T12:31:51;3.08;;;1.98;;
18685;SDS011;9473;52.342;13.110;2023-05-10T12:34:24;4.65;;;2.30;;
18685;SDS011;9473;52.342;13.110;2023-05-10T12:36:53;6.28;;;2.38;;
18685;SDS011;9473;52.342;13.110;2023-05-10T12:39:20;3.47;;;2.20;;
18685;SDS011;9473;52.342;13.110;2023-05-10T12:41:47;3.70;;;2.30;;
18685;SDS011;9473;52.342;13.110;2023-05-10T12:44:14;7.28;;;2.10;;
18685;SDS011;9473;52.342;13.110;2023-05-10T12:46:41;3.13;;;1.92;;
18685;SDS011;9473;52.342;13.110;2023-05-10T12:49:08;4.90;;;2.10;;
18685;SDS011;9473;52.342;13.110;2023-05-10T12:51:35;2.85;;;2.13;;
18685;SDS011;9473;52.342;13.110;2023-05-10T12:54:04;5.47;;;1.95;;
18685;SDS011;9473;52.342;13.110;2023-05-10T12:56:30;7.32;;;2.38;;
18685;SDS011;9473;52.342;13.110;2023-05-10T12:58:57;6.97;;;2.40;;
18685;SDS011;9473;52.342;13.110;2023-05-10T13:01:24;4.10;;;2.20;;
18685;SDS011;9473;52.342;13.110;2023-05-10T13:03:51;5.60;;;2.95;;
18685;SDS011;9473;52.342;13.110;2023-05-10T13:06:18;9.15;;;2.42;;
18685;SDS011;9473;52.342;13.110;2023-05-10T13:08:45;4.88;;;2.42;;
18685;SDS011;9473;52.342;13.110;2023-05-10T13:11:13;2.70;;;2.08;;
18685;SDS011;9473;52.342;13.110;2023-05-10T13:13:41;6.53;;;2.30;;
18685;SDS011;9473;52.342;13.110;2023-05-10T13:16:08;4.63;;;2.45;;
18685;SDS011;9473;52.342;13.110;2023-05-10T13:18:35;3.67;;;2.25;;
18685;SDS011;9473;52.342;13.110;2023-05-10T13:21:02;5.30;;;2.35;;
18685;SDS011;9473;52.342;13.110;2023-05-10T13:23:30;7.45;;;2.42;;
18685;SDS011;9473;52.342;13.110;2023-05-10T13:25:57;4.53;;;2.25;;
18685;SDS011;9473;52.342;13.110;2023-05-10T13:28:25;6.10;;;2.28;;
18685;SDS011;9473;52.342;13.110;2023-05-10T13:30:52;6.85;;;2.30;;
18685;SDS011;9473;52.342;13.110;2023-05-10T13:33:19;4.55;;;2.40;;
18685;SDS011;9473;52.342;13.110;2023-05-10T13:35:46;3.63;;;2.28;;
18685;SDS011;9473;52.342;13.110;2023-05-10T13:38:13;4.32;;;2.15;;
18685;SDS011;9473;52.342;13.110;2023-05-10T13:40:40;3.60;;;2.40;;
18685;SDS011;9473;52.342;13.110;2023-05-10T13:43:07;3.08;;;2.05;;
18685;SDS011;9473;52.342;13.110;2023-05-10T13:45:35;4.50;;;2.60;;
18685;SDS011;9473;52.342;13.110;2023-05-10T13:48:02;3.92;;;2.30;;
18685;SDS011;9473;52.342;13.110;2023-05-10T13:50:29;4.57;;;2.60;;
18685;SDS011;9473;52.342;13.110;2023-05-10T13:52:56;7.00;;;2.53;;
18685;SDS011;9473;52.342;13.110;2023-05-10T13:55:23;4.60;;;2.35;;
18685;SDS011;9473;52.342;13.110;2023-05-10T13:57:50;8.13;;;2.63;;
18685;SDS011;9473;52.342;13.110;2023-05-10T14:00:17;4.05;;;2.60;;
18685;SDS011;9473;52.342;13.110;2023-05-10T14:02:45;4.80;;;2.40;;
18685;SDS011;9473;52.342;13.110;2023-05-10T14:05:12;6.50;;;2.20;;
18685;SDS011;9473;52.342;13.110;2023-05-10T14:07:39;7.30;;;2.20;;
18685;SDS011;9473;52.342;13.110;2023-05-10T14:10:06;7.45;;;2.63;;
18685;SDS011;9473;52.342;13.110;2023-05-10T14:12:33;3.33;;;2.25;;
18685;SDS011;9473;52.342;13.110;2023-05-10T14:15:01;3.40;;;2.20;;
18685;SDS011;9473;52.342;13.110;2023-05-10T14:17:30;3.58;;;2.40;;
18685;SDS011;9473;52.342;13.110;2023-05-10T14:19:59;3.28;;;2.50;;
18685;SDS011;9473;52.342;13.110;2023-05-10T14:22:26;5.75;;;2.30;;
18685;SDS011;9473;52.342;13.110;2023-05-10T14:24:53;4.32;;;2.08;;
18685;SDS011;9473;52.342;13.110;2023-05-10T14:27:20;3.70;;;2.10;;
18685;SDS011;9473;52.342;13.110;2023-05-10T14:29:47;5.63;;;2.72;;
18685;SDS011;9473;52.342;13.110;2023-05-10T14:32:14;2.85;;;2.38;;
18685;SDS011;9473;52.342;13.110;2023-05-10T14:34:41;4.68;;;2.63;;
18685;SDS011;9473;52.342;13.110;2023-05-10T14:37:11;3.90;;;2.60;;
18685;SDS011;9473;52.342;13.110;2023-05-10T14:39:38;3.10;;;2.20;;
18685;SDS011;9473;52.342;13.110;2023-05-10T14:42:05;3.47;;;2.50;;
18685;SDS011;9473;52.342;13.110;2023-05-10T14:44:32;6.70;;;2.63;;
18685;SDS011;9473;52.342;13.110;2023-05-10T14:46:58;5.03;;;2.33;;
18685;SDS011;9473;52.342;13.110;2023-05-10T14:49:25;3.13;;;2.05;;
18685;SDS011;9473;52.342;13.110;2023-05-10T14:51:52;4.65;;;2.20;;
18685;SDS011;9473;52.342;13.110;2023-05-10T14:54:20;4.35;;;2.58;;